Time;durP1;ratioP1;P1;durP2;ratioP2;P2;SDS_P1;SDS_P2;PMS_P1;PMS_P2;Temp;Humidity;BMP_temperature;BMP_pressure;BME280_temperature;BME280_humidity;BME280_pressure;Samples;Min_cycle;Max_cycle;Signal;HPM_P1;HPM_P2
2022/09/04 00:00:11;;;;;;;28.38;15.55;;;;;;;9.39;100.00;98368.35;1724884;82;21208;-91
2022/09/04 00:02:54;;;;;;;24.75;14.15;;;;;;;9.34;100.00;98371.86;1702076;82;21043;-83
2022/09/04 00:05:45;;;;;;;27.35;15.03;;;;;;;9.32;100.00;98369.97;1702213;82;21431;-83
2022/09/04 00:08:35;;;;;;;20.75;13.30;;;;;;;9.28;100.00;98371.01;1655198;85;21029;-83
2022/09/04 00:11:25;;;;;;;22.32;14.03;;;;;;;9.28;100.00;98372.36;1709728;82;21106;-82
2022/09/04 00:13:59;;;;;;;20.92;14.20;;;;;;;9.23;100.00;98376.41;1720707;82;21089;-90
2022/09/04 00:16:41;;;;;;;19.80;13.10;;;;;;;9.21;100.00;98374.48;1715538;82;21074;-83
2022/09/04 00:19:42;;;;;;;21.42;13.83;;;;;;;9.25;100.00;98379.66;1718630;82;21071;-90
2022/09/04 00:22:34;;;;;;;22.13;13.72;;;;;;;9.27;100.00;98381.55;1663148;85;21065;-89
2022/09/04 00:25:15;;;;;;;21.42;13.85;;;;;;;9.28;100.00;98382.36;1652088;86;21066;-90
2022/09/04 00:27:44;;;;;;;20.77;12.82;;;;;;;9.24;100.00;98382.63;1719791;82;21072;-87
2022/09/04 00:30:14;;;;;;;20.15;13.55;;;;;;;9.22;100.00;98378.81;1701248;82;21007;-83
2022/09/04 00:32:47;;;;;;;17.52;12.30;;;;;;;9.18;100.00;98376.91;1679395;83;20972;-90
2022/09/04 00:35:18;;;;;;;23.87;12.98;;;;;;;9.18;100.00;98376.91;1715965;82;21027;-83
2022/09/04 00:38:04;;;;;;;20.30;12.60;;;;;;;9.17;100.00;98375.28;1737045;82;21437;-84
2022/09/04 00:40:56;;;;;;;21.25;13.05;;;;;;;9.14;100.00;98379.30;1737123;82;21490;-89
2022/09/04 00:43:37;;;;;;;18.90;12.30;;;;;;;9.17;100.00;98382.85;1736953;82;20996;-89
2022/09/04 00:46:09;;;;;;;17.67;12.13;;;;;;;9.12;100.00;98386.87;1706775;82;21024;-90
2022/09/04 00:49:00;;;;;;;19.77;12.80;;;;;;;9.12;100.00;98386.87;1712639;82;21039;-83
2022/09/04 00:51:56;;;;;;;19.87;12.35;;;;;;;9.01;100.00;98387.89;1732510;82;21013;-89
2022/09/04 00:55:04;;;;;;;24.47;14.55;;;;;;;9.01;100.00;98387.89;1737386;82;21170;-89
2022/09/04 00:58:00;;;;;;;18.20;12.60;;;;;;;8.99;100.00;98382.75;1682995;85;21650;-90
2022/09/04 01:00:27;;;;;;;22.40;14.33;;;;;;;8.99;100.00;98383.28;1733115;82;21016;-89
2022/09/04 01:03:24;;;;;;;25.32;13.53;;;;;;;8.94;100.00;98382.70;1737132;82;21575;-83
2022/09/04 01:06:11;;;;;;;21.17;14.20;;;;;;;8.86;100.00;98379.67;1725811;82;21066;-90
2022/09/04 01:09:02;;;;;;;19.50;11.88;;;;;;;8.86;100.00;98379.67;1712537;82;21132;-89
2022/09/04 01:12:07;;;;;;;20.85;11.85;;;;;;;8.84;100.00;98381.28;1712572;82;21427;-83
2022/09/04 01:14:41;;;;;;;17.57;11.33;;;;;;;8.83;100.00;98382.91;1714231;82;21020;-82
2022/09/04 01:17:18;;;;;;;17.42;11.83;;;;;;;8.85;100.00;98389.66;1709997;82;20998;-89
2022/09/04 01:20:22;;;;;;;18.10;12.05;;;;;;;8.87;100.00;98379.41;1730326;82;21020;-83
2022/09/04 01:22:59;;;;;;;15.48;11.55;;;;;;;8.87;100.00;98382.11;1708808;83;21186;-90
2022/09/04 01:25:52;;;;;;;18.48;12.37;;;;;;;8.88;100.00;98385.08;1707409;82;21015;-83
2022/09/04 01:28:41;;;;;;;19.62;13.00;;;;;;;8.85;100.00;98390.20;1715762;82;21030;-83
2022/09/04 01:31:32;;;;;;;20.32;12.43;;;;;;;8.85;100.00;98391.02;1737220;82;21001;-83
2022/09/04 01:34:16;;;;;;;21.17;13.10;;;;;;;8.86;100.00;98389.94;1737008;82;20985;-84
2022/09/04 01:36:59;;;;;;;25.15;13.98;;;;;;;8.88;100.00;98387.78;1736141;82;21470;-83
2022/09/04 01:39:26;;;;;;;18.32;12.55;;;;;;;8.86;100.00;98395.34;1737279;82;21004;-90
2022/09/04 01:42:05;;;;;;;21.55;12.82;;;;;;;8.84;100.00;98398.84;1721865;82;21049;-83
2022/09/04 01:44:32;;;;;;;22.35;14.10;;;;;;;8.80;100.00;98396.91;1737235;82;21147;-83
2022/09/04 01:47:31;;;;;;;23.40;13.70;;;;;;;8.77;100.00;98396.90;1714106;82;21073;-84
2022/09/04 01:50:07;;;;;;;20.05;13.90;;;;;;;8.70;100.00;98394.95;1715064;82;26680;-83
2022/09/04 01:53:01;;;;;;;20.85;14.30;;;;;;;8.65;100.00;98396.27;1673848;84;21096;-83
2022/09/04 01:56:02;;;;;;;23.67;15.35;;;;;;;8.60;100.00;98394.88;1728342;82;21096;-89
2022/09/04 01:58:58;;;;;;;21.55;14.43;;;;;;;8.51;100.00;98397.77;1715042;80;21076;-83
2022/09/04 02:01:39;;;;;;;21.37;13.78;;;;;;;8.47;100.00;98397.48;1703559;82;22108;-83
2022/09/04 02:04:26;;;;;;;20.62;13.35;;;;;;;8.48;100.00;98395.05;1709270;81;21100;-83
2022/09/04 02:07:15;;;;;;;17.60;11.97;;;;;;;8.50;100.00;98399.66;1722343;82;21083;-90
2022/09/04 02:09:49;;;;;;;16.93;12.28;;;;;;;8.54;100.00;98403.99;1707319;80;21347;-89
2022/09/04 02:12:34;;;;;;;27.42;11.70;;;;;;;8.56;100.00;98396.47;1706792;83;21016;-90
2022/09/04 02:15:24;;;;;;;17.48;11.10;;;;;;;8.62;100.00;98397.58;1729289;82;21500;-83
2022/09/04 02:18:20;;;;;;;17.80;12.13;;;;;;;8.69;100.00;98397.38;1693853;82;21960;-90
2022/09/04 02:21:01;;;;;;;17.62;11.73;;;;;;;8.76;100.00;98395.27;1709451;82;21611;-83
2022/09/04 02:23:50;;;;;;;21.60;12.70;;;;;;;8.80;100.00;98393.67;1704392;82;21028;-90
2022/09/04 02:26:21;;;;;;;21.27;12.88;;;;;;;8.83;100.00;98393.17;1717482;82;21012;-89
2022/09/04 02:29:05;;;;;;;19.75;12.00;;;;;;;8.80;100.00;98392.86;1720883;82;21500;-82
2022/09/04 02:31:51;;;;;;;17.92;11.70;;;;;;;8.76;100.00;98389.33;1731054;82;21328;-90
2022/09/04 02:34:25;;;;;;;17.67;11.48;;;;;;;8.73;100.00;98386.34;1723961;82;21030;-90
2022/09/04 02:37:17;;;;;;;17.50;11.53;;;;;;;8.72;100.00;98388.23;1712422;82;21003;-90
2022/09/04 02:40:09;;;;;;;16.05;10.13;;;;;;;8.70;100.00;98386.84;1730080;82;21473;-89
2022/09/04 02:43:20;;;;;;;20.80;11.08;;;;;;;8.65;100.00;98390.88;1720523;82;21077;-82
2022/09/04 02:46:31;;;;;;;17.20;11.08;;;;;;;8.62;100.00;98384.08;1712389;82;21113;-83
2022/09/04 02:49:34;;;;;;;14.18;10.03;;;;;;;8.64;100.00;98381.95;1722269;82;21001;-82
2022/09/04 02:52:42;;;;;;;17.95;10.40;;;;;;;8.62;100.00;98375.16;1724281;82;21016;-82
2022/09/04 02:55:44;;;;;;;15.53;9.55;;;;;;;8.60;100.00;98381.36;1691355;82;21008;-90
2022/09/04 02:58:50;;;;;;;14.25;10.08;;;;;;;8.58;100.00;98375.41;1731783;82;20990;-83
2022/09/04 03:01:33;;;;;;;18.98;10.08;;;;;;;8.55;100.00;98374.05;1658744;85;21087;-89
2022/09/04 03:04:11;;;;;;;15.88;10.28;;;;;;;8.55;100.00;98378.64;1736774;82;21013;-83
2022/09/04 03:06:48;;;;;;;13.40;9.40;;;;;;;8.55;100.00;98379.98;1730706;82;20995;-89
2022/09/04 03:09:25;;;;;;;13.75;9.13;;;;;;;8.56;100.00;98379.73;1700802;82;21437;-89
2022/09/04 03:12:06;;;;;;;13.93;9.48;;;;;;;8.54;100.00;98378.33;1735016;82;20993;-89
2022/09/04 03:14:42;;;;;;;14.60;10.00;;;;;;;8.51;100.00;98378.32;1721751;82;22049;-90
2022/09/04 03:17:22;;;;;;;17.82;11.15;;;;;;;8.51;100.00;98384.26;1710226;82;21027;-83
2022/09/04 03:19:54;;;;;;;19.27;11.10;;;;;;;8.51;100.00;98380.20;1713566;82;21558;-82
2022/09/04 03:22:46;;;;;;;14.58;11.12;;;;;;;8.51;100.00;98380.20;1719783;82;21041;-90
2022/09/04 03:25:37;;;;;;;15.08;10.70;;;;;;;8.51;100.00;98379.67;1698837;82;21098;-90
2022/09/04 03:28:04;;;;;;;18.85;11.85;;;;;;;8.51;100.00;98382.38;1708906;82;21152;-90
2022/09/04 03:30:31;;;;;;;19.87;11.43;;;;;;;8.50;100.00;98374.00;1727783;82;21071;-90
2022/09/04 03:33:12;;;;;;;18.35;10.75;;;;;;;8.52;100.00;98371.84;1711253;82;21564;-84
2022/09/04 03:35:56;;;;;;;16.93;10.88;;;;;;;8.52;100.00;98371.84;1727804;82;21031;-90
2022/09/04 03:38:44;;;;;;;18.45;11.20;;;;;;;8.53;100.00;98372.66;1710239;82;21050;-89
2022/09/04 03:41:24;;;;;;;17.37;12.03;;;;;;;8.56;100.00;98378.37;1708583;82;21765;-89
2022/09/04 03:44:01;;;;;;;17.77;10.72;;;;;;;8.60;100.00;98380.02;1690296;82;20976;-83
2022/09/04 03:46:54;;;;;;;18.30;12.25;;;;;;;8.60;100.00;98377.31;1725993;82;21040;-82
2022/09/04 03:50:08;;;;;;;16.87;10.40;;;;;;;8.64;100.00;98381.14;1723600;82;21003;-88
2022/09/04 03:53:17;;;;;;;14.13;9.65;;;;;;;8.61;100.00;98372.19;1728974;82;21071;-89
2022/09/04 03:56:22;;;;;;;15.88;10.38;;;;;;;8.61;100.00;98372.19;1737033;82;21469;-82
2022/09/04 03:59:04;;;;;;;15.55;10.05;;;;;;;8.56;100.00;98381.08;1737224;82;21071;-83
2022/09/04 04:01:43;;;;;;;16.37;9.83;;;;;;;8.55;100.00;98374.05;1737501;82;21406;-90
2022/09/04 04:04:33;;;;;;;14.87;9.35;;;;;;;8.56;100.00;98383.78;1737416;82;21438;-83
2022/09/04 04:07:08;;;;;;;15.90;10.98;;;;;;;8.56;100.00;98383.78;1734542;82;21063;-89
2022/09/04 04:10:02;;;;;;;19.35;10.28;;;;;;;8.61;100.00;98389.74;1702781;82;21403;-83
2022/09/04 04:13:20;;;;;;;14.23;9.95;;;;;;;8.61;100.00;98389.74;1728467;82;21012;-82
2022/09/04 04:16:08;;;;;;;13.90;9.13;;;;;;;8.64;100.00;98393.30;1704516;82;21062;-88
2022/09/04 04:19:09;;;;;;;18.13;10.03;;;;;;;8.69;100.00;98396.83;1715038;82;21060;-82
2022/09/04 04:22:05;;;;;;;12.90;9.53;;;;;;;8.68;100.00;98397.10;1680843;82;21661;-83
2022/09/04 04:24:56;;;;;;;17.02;9.83;;;;;;;8.70;100.00;98393.59;1719695;82;21239;-84
2022/09/04 04:27:44;;;;;;;20.75;11.05;;;;;;;8.73;100.00;98403.91;1712467;82;21097;-89
2022/09/04 04:30:13;;;;;;;15.88;10.30;;;;;;;8.77;100.00;98396.90;1712631;82;21026;-89
2022/09/04 04:33:09;;;;;;;15.95;10.98;;;;;;;8.83;100.00;98398.58;1712583;82;21426;-90
2022/09/04 04:35:59;;;;;;;17.30;9.88;;;;;;;8.92;100.00;98398.91;1721742;82;21082;-90
2022/09/04 04:39:04;;;;;;;12.47;8.60;;;;;;;9.09;100.00;98409.56;1719281;82;21028;-82
2022/09/04 04:42:06;;;;;;;14.73;9.45;;;;;;;9.09;100.00;98409.56;1731480;82;20999;-82
2022/09/04 04:48:40;;;;;;;13.35;9.58;;;;;;;9.24;100.00;98412.38;1736909;82;21039;-89
2022/09/04 04:51:47;;;;;;;15.13;9.50;;;;;;;9.35;100.00;98410.53;1733949;82;21016;-89
2022/09/04 04:54:58;;;;;;;11.75;7.67;;;;;;;9.38;100.00;98402.70;1724972;82;21249;-83
2022/09/04 04:57:54;;;;;;;10.03;8.20;;;;;;;9.66;100.00;98420.44;1736781;82;21474;-83
2022/09/04 05:00:32;;;;;;;11.45;9.53;;;;;;;9.75;100.00;98429.68;1723459;82;21049;-84
2022/09/04 05:03:31;;;;;;;16.48;13.38;;;;;;;9.75;100.00;98429.68;1661884;84;21054;-83
2022/09/04 05:06:11;;;;;;;15.38;11.85;;;;;;;9.78;100.00;98429.69;1671492;84;21010;-90
2022/09/04 05:08:46;;;;;;;21.20;15.30;;;;;;;9.82;100.00;98432.94;1672476;85;21146;-83
2022/09/04 05:11:47;;;;;;;17.02;13.35;;;;;;;9.82;100.00;98438.34;1711601;80;21035;-84
2022/09/04 05:14:36;;;;;;;15.80;13.03;;;;;;;9.85;100.00;98437.84;1712382;82;21035;-84
2022/09/04 05:17:08;;;;;;;18.98;14.65;;;;;;;9.89;100.00;98437.56;1700290;82;21339;-83
2022/09/04 05:19:57;;;;;;;25.23;18.92;;;;;;;9.93;100.00;98440.58;1720863;82;21028;-91
2022/09/04 05:22:35;;;;;;;29.42;22.73;;;;;;;9.95;100.00;98433.00;1737040;82;21171;-83
2022/09/04 05:25:18;;;;;;;27.07;22.48;;;;;;;10.00;100.00;98437.09;1732944;82;21068;-82
2022/09/04 05:28:11;;;;;;;30.15;24.87;;;;;;;10.02;100.00;98436.81;1677559;82;21044;-83
2022/09/04 05:31:17;;;;;;;24.60;18.77;;;;;;;10.06;100.00;98433.30;1737145;82;21547;-83
2022/09/04 05:34:05;;;;;;;24.18;18.25;;;;;;;10.13;100.00;98437.11;1736751;82;21075;-90
2022/09/04 05:37:04;;;;;;;22.98;16.93;;;;;;;10.18;100.00;98440.66;1733914;82;21081;-91
2022/09/04 05:39:48;;;;;;;25.75;21.33;;;;;;;10.21;100.00;98443.91;1652680;85;49146;-83
2022/09/04 05:42:42;;;;;;;34.48;28.00;;;;;;;10.27;100.00;98444.23;1711239;82;21743;-83
2022/09/04 05:45:19;;;;;;;29.50;22.90;;;;;;;10.32;100.00;98446.94;1730460;82;21483;-83
2022/09/04 05:48:20;;;;;;;31.17;19.77;;;;;;;10.40;100.00;98441.81;1702501;82;21008;-90
2022/09/04 05:51:21;;;;;;;22.90;17.35;;;;;;;10.49;100.00;98451.58;1710584;82;21197;-90
2022/09/04 05:54:04;;;;;;;22.98;14.60;;;;;;;10.60;100.00;98451.08;1712553;82;21043;-83
2022/09/04 05:56:48;;;;;;;19.73;12.88;;;;;;;10.73;100.00;98458.12;1695323;82;21015;-82
2022/09/04 05:59:53;;;;;;;17.20;13.68;;;;;;;10.85;100.00;98467.36;1712473;82;21086;-83
2022/09/04 06:02:44;;;;;;;14.55;11.30;;;;;;;10.92;100.00;98467.88;1726488;82;21430;-91
2022/09/04 06:05:21;;;;;;;13.22;10.48;;;;;;;11.04;100.00;98470.89;1730166;82;21143;-82
2022/09/04 06:08:02;;;;;;;15.58;10.45;;;;;;;11.12;100.00;98473.05;1712270;82;21054;-83
2022/09/04 06:11:12;;;;;;;12.05;9.65;;;;;;;11.18;100.00;98467.88;1709820;82;21019;-83
2022/09/04 06:14:18;;;;;;;14.58;11.65;;;;;;;11.28;100.00;98467.34;1719139;82;21040;-92
2022/09/04 06:17:38;;;;;;;21.27;16.50;;;;;;;11.36;100.00;98468.66;1746462;80;21186;-84
2022/09/04 06:20:36;;;;;;;24.25;18.57;;;;;;;11.45;100.00;98468.92;1698447;82;21538;-82
2022/09/04 06:23:26;;;;;;;36.50;29.98;;;;;;;11.54;100.00;98478.16;1731730;82;20997;-90
2022/09/04 06:26:06;;;;;;;35.50;27.87;;;;;;;11.65;100.00;98472.97;1708148;82;21015;-83
2022/09/04 06:29:00;;;;;;;23.38;19.65;;;;;;;11.70;100.00;98482.44;1714347;82;21489;-90
2022/09/04 06:32:05;;;;;;;19.55;15.15;;;;;;;11.72;100.00;98478.11;1737391;82;21028;-83
2022/09/04 06:34:54;;;;;;;18.73;13.32;;;;;;;11.81;100.00;98475.13;1721795;82;21155;-83
2022/09/04 06:38:01;;;;;;;21.68;15.35;;;;;;;11.95;100.00;98475.34;1712432;82;21011;-90
2022/09/04 06:41:24;;;;;;;19.77;15.80;;;;;;;12.05;100.00;98479.40;1712674;82;21086;-83
2022/09/04 06:44:23;;;;;;;18.73;11.35;;;;;;;12.23;100.00;98479.31;1712536;82;21014;-91
2022/09/04 06:47:17;;;;;;;13.68;10.43;;;;;;;12.48;100.00;98480.55;1722576;82;20984;-91
2022/09/04 06:50:04;;;;;;;16.40;10.90;;;;;;;12.69;100.00;98481.22;1733596;82;21208;-83
2022/09/04 06:53:08;;;;;;;14.95;12.18;;;;;;;12.91;100.00;98480.25;1709631;83;22230;-83
2022/09/04 06:55:54;;;;;;;15.50;12.25;;;;;;;13.09;100.00;98489.63;1706299;82;21060;-91
2022/09/04 06:58:55;;;;;;;12.88;10.80;;;;;;;13.21;100.00;98499.63;1693455;82;21517;-83
2022/09/04 07:01:39;;;;;;;10.75;8.08;;;;;;;13.26;100.00;98494.70;1729719;82;21005;-90
2022/09/04 07:04:20;;;;;;;14.70;8.38;;;;;;;13.48;100.00;98492.84;1724443;82;21050;-84
2022/09/04 07:06:58;;;;;;;9.30;6.80;;;;;;;13.72;100.00;98495.05;1711486;82;20990;-91
2022/09/04 07:09:31;;;;;;;9.55;8.10;;;;;;;13.83;99.19;98495.75;1700945;82;21019;-82
2022/09/04 07:12:47;;;;;;;11.45;8.35;;;;;;;14.05;98.99;98493.33;1699909;82;21446;-83
2022/09/04 07:15:51;;;;;;;14.95;7.62;;;;;;;14.30;100.00;98494.13;1719825;82;21087;-91
2022/09/04 07:18:58;;;;;;;9.90;7.33;;;;;;;14.57;100.00;98498.41;1713440;82;21147;-84
2022/09/04 07:21:32;;;;;;;8.83;6.50;;;;;;;14.87;99.88;98497.17;1700447;82;21073;-84
2022/09/04 07:24:37;;;;;;;11.60;8.18;;;;;;;15.31;98.51;98497.85;1712408;82;21023;-91
2022/09/04 07:27:35;;;;;;;8.80;6.92;;;;;;;15.52;97.08;98499.11;1699929;82;20996;-91
2022/09/04 07:30:11;;;;;;;9.88;7.87;;;;;;;15.96;93.63;98494.48;1695821;82;21014;-90
2022/09/04 07:32:56;;;;;;;9.95;6.33;;;;;;;16.77;93.71;98498.84;1692757;83;21178;-84
2022/09/04 07:35:51;;;;;;;7.60;6.33;;;;;;;17.88;93.62;98499.94;1690838;82;21440;-91
2022/09/04 07:38:48;;;;;;;20.20;16.50;;;;;;;18.54;91.76;98507.66;1712553;82;21053;-84
2022/09/04 07:41:32;;;;;;;7.22;6.42;;;;;;;19.38;86.98;98504.22;1726985;82;20977;-84
2022/09/04 07:44:06;;;;;;;5.75;5.03;;;;;;;20.66;84.45;98497.77;1737003;82;21016;-84
2022/09/04 07:46:47;;;;;;;9.93;5.83;;;;;;;20.77;80.57;98501.77;1735904;82;21565;-85
2022/09/04 07:49:36;;;;;;;9.95;6.53;;;;;;;20.84;81.70;98502.81;1736730;82;21040;-91
2022/09/04 07:52:13;;;;;;;15.15;11.75;;;;;;;20.08;80.14;98513.94;1701144;82;21027;-90
2022/09/04 07:55:06;;;;;;;14.65;10.85;;;;;;;19.67;82.52;98518.11;1674023;82;21020;-91
2022/09/04 07:57:52;;;;;;;12.50;9.15;;;;;;;19.26;81.32;98513.13;1712441;82;20987;-84
2022/09/04 08:00:21;;;;;;;17.15;10.30;;;;;;;18.91;82.58;98511.52;1711579;82;21135;-84
2022/09/04 08:03:12;;;;;;;15.63;10.35;;;;;;;18.52;82.56;98513.20;1694429;82;21000;-84
2022/09/04 08:05:50;;;;;;;10.55;8.50;;;;;;;18.20;81.46;98514.39;1713604;82;21056;-84
2022/09/04 08:08:36;;;;;;;9.68;7.37;;;;;;;17.91;82.03;98528.64;1693546;84;21012;-84
2022/09/04 08:11:29;;;;;;;28.65;12.10;;;;;;;17.58;82.88;98530.84;1732719;82;21005;-84
2022/09/04 08:14:24;;;;;;;19.95;10.10;;;;;;;17.29;84.31;98528.56;1734043;82;21164;-91
2022/09/04 08:17:23;;;;;;;9.23;6.92;;;;;;;17.11;85.26;98530.36;1743840;80;21286;-91
2022/09/04 08:19:51;;;;;;;13.50;8.25;;;;;;;16.99;85.52;98531.45;1659653;85;21024;-84
2022/09/04 08:22:23;;;;;;;11.03;7.87;;;;;;;16.78;86.05;98532.48;1672602;84;21041;-91
2022/09/04 08:24:57;;;;;;;12.47;8.20;;;;;;;16.61;86.50;98536.64;1712213;82;21067;-84
2022/09/04 08:27:41;;;;;;;25.85;11.35;;;;;;;16.49;87.00;98540.47;1727078;82;21584;-84
2022/09/04 08:30:09;;;;;;;25.00;12.03;;;;;;;16.36;87.36;98548.11;1732279;82;21024;-84
2022/09/04 08:32:57;;;;;;;13.00;8.30;;;;;;;16.26;88.16;98553.79;1696430;82;21507;-84
2022/09/04 08:35:34;;;;;;;9.63;6.92;;;;;;;16.14;88.60;98554.27;1722151;82;21064;-90
2022/09/04 08:38:32;;;;;;;10.60;7.70;;;;;;;16.03;88.65;98558.32;1736961;82;22171;-91
2022/09/04 08:41:16;;;;;;;31.20;13.53;;;;;;;15.93;88.87;98562.06;1737292;82;22504;-90
2022/09/04 08:44:08;;;;;;;28.25;14.00;;;;;;;15.85;89.11;98566.04;1729556;82;21018;-92
2022/09/04 08:46:55;;;;;;;20.52;12.00;;;;;;;15.70;91.39;98567.11;1712531;82;21105;-91
2022/09/04 08:49:52;;;;;;;17.20;11.25;;;;;;;15.56;92.23;98570.34;1712509;82;21002;-83
2022/09/04 08:52:51;;;;;;;10.97;9.03;;;;;;;15.48;92.19;98574.02;1712036;82;21478;-83
2022/09/04 08:55:46;;;;;;;17.80;12.60;;;;;;;15.41;92.97;98580.41;1735896;82;21752;-84
2022/09/04 08:58:35;;;;;;;9.85;8.03;;;;;;;15.30;92.80;98585.77;1736765;82;21048;-83
2022/09/04 09:01:26;;;;;;;11.40;9.08;;;;;;;15.24;92.31;98585.59;1708392;82;21492;-91
2022/09/04 09:04:10;;;;;;;15.00;9.98;;;;;;;15.08;94.34;98583.63;1712313;82;21396;-84
2022/09/04 09:07:14;;;;;;;12.33;9.55;;;;;;;14.98;94.99;98589.80;1727942;82;21014;-91
2022/09/04 09:10:22;;;;;;;16.52;10.58;;;;;;;14.93;94.89;98592.84;1714959;82;21048;-91
2022/09/04 09:13:18;;;;;;;12.83;8.63;;;;;;;14.88;96.12;98590.75;1730407;82;21464;-91
2022/09/04 09:15:50;;;;;;;18.42;11.57;;;;;;;14.89;95.81;98592.38;1737387;82;21320;-90
2022/09/04 09:18:44;;;;;;;30.05;13.88;;;;;;;14.95;95.67;98598.84;1707009;82;21031;-91
2022/09/04 09:21:26;;;;;;;15.80;11.03;;;;;;;14.99;96.02;98602.33;1723918;82;20985;-84
2022/09/04 09:24:10;;;;;;;10.98;8.63;;;;;;;15.04;95.89;98604.97;1728407;82;21129;-84
2022/09/04 09:26:47;;;;;;;27.27;14.23;;;;;;;15.12;95.18;98608.41;1712843;82;21082;-84
2022/09/04 09:29:43;;;;;;;16.42;11.10;;;;;;;15.07;96.12;98609.30;1709261;82;21034;-91
2022/09/04 09:32:38;;;;;;;17.35;9.38;;;;;;;15.05;96.97;98607.43;1705047;82;21034;-91
2022/09/04 09:35:40;;;;;;;14.03;9.50;;;;;;;15.04;97.22;98614.00;1715403;82;20991;-85
2022/09/04 09:38:30;;;;;;;11.75;9.10;;;;;;;15.09;96.70;98615.83;1734301;82;21024;-91
2022/09/04 09:41:46;;;;;;;12.23;9.13;;;;;;;14.97;97.34;98620.37;1737035;82;21080;-84
2022/09/04 09:44:37;;;;;;;13.15;9.63;;;;;;;15.02;97.34;98617.55;1737198;82;21096;-91
2022/09/04 09:47:33;;;;;;;15.45;9.85;;;;;;;15.10;96.84;98618.81;1726333;82;21062;-83
2022/09/04 09:50:24;;;;;;;13.43;9.88;;;;;;;14.99;97.37;98626.89;1726592;82;20999;-84
2022/09/04 09:53:16;;;;;;;12.63;10.20;;;;;;;15.12;96.55;98627.52;1693760;82;21076;-84
2022/09/04 09:56:03;;;;;;;12.73;9.98;;;;;;;15.21;96.49;98629.31;1647312;86;21066;-89
2022/09/04 09:59:08;;;;;;;11.93;9.55;;;;;;;15.39;96.14;98630.41;1708586;82;21035;-90
2022/09/04 10:01:45;;;;;;;16.35;10.53;;;;;;;15.58;95.95;98635.04;1678319;84;21017;-92
2022/09/04 10:04:51;;;;;;;22.73;13.58;;;;;;;15.73;95.42;98635.64;1636120;85;21099;-84
2022/09/04 10:07:35;;;;;;;20.65;12.60;;;;;;;15.81;95.10;98636.89;1716663;82;21296;-83
2022/09/04 10:10:46;;;;;;;11.33;8.85;;;;;;;15.75;94.53;98641.61;1717465;82;21030;-85
2022/09/04 10:13:43;;;;;;;13.43;9.35;;;;;;;15.71;94.16;98641.94;1740797;82;21024;-91
2022/09/04 10:16:18;;;;;;;11.30;8.63;;;;;;;15.71;94.16;98646.03;1754996;80;20978;-85
2022/09/04 10:19:10;;;;;;;12.58;8.58;;;;;;;15.74;94.04;98646.02;1735613;82;22123;-91
2022/09/04 10:21:58;;;;;;;11.65;8.68;;;;;;;15.81;94.10;98646.45;1723457;82;21037;-91
2022/09/04 10:24:44;;;;;;;10.82;9.10;;;;;;;15.90;94.07;98647.95;1731523;82;21313;-84
2022/09/04 10:27:37;;;;;;;13.88;9.75;;;;;;;;;;1743066;82;21792;-84
2022/09/04 10:30:22;;;;;;;14.75;9.85;;;;;;;16.00;93.20;98654.59;1738241;82;21058;-89
2022/09/04 10:33:15;;;;;;;12.35;9.83;;;;;;;15.89;93.42;98655.86;1709954;83;21072;-91
2022/09/04 10:36:24;;;;;;;9.63;8.48;;;;;;;15.89;93.43;98659.40;1699260;82;21310;-84
2022/09/04 10:43:01;;;;;;;10.15;9.03;;;;;;;15.89;94.21;98659.95;1721977;82;21078;-91
2022/09/04 10:45:38;;;;;;;11.18;8.60;;;;;;;15.98;94.01;98663.62;1715509;82;20995;-92
2022/09/04 10:48:39;;;;;;;10.63;9.20;;;;;;;16.00;93.87;98663.61;1732023;80;21539;-84
2022/09/04 10:51:14;;;;;;;12.03;10.10;;;;;;;15.98;94.09;98660.89;1712690;82;21543;-92
2022/09/04 10:54:15;;;;;;;11.90;10.32;;;;;;;15.95;93.77;98665.61;1736834;80;21024;-84
2022/09/04 10:57:00;;;;;;;12.65;9.83;;;;;;;15.80;93.89;98666.66;1720318;82;21044;-84
2022/09/04 10:59:56;;;;;;;10.18;7.87;;;;;;;15.70;94.53;98662.17;1710744;82;21064;-91
2022/09/04 11:03:02;;;;;;;12.82;10.38;;;;;;;15.70;94.42;98661.36;1725289;82;21033;-84
2022/09/04 11:06:09;;;;;;;10.95;9.28;;;;;;;15.68;94.27;98660.86;1716147;82;21322;-91
2022/09/04 11:09:08;;;;;;;13.70;9.88;;;;;;;15.65;94.21;98654.63;1727353;82;20980;-91
2022/09/04 11:11:53;;;;;;;;;;;;;;;15.60;94.77;98654.67;1718044;82;21570;-92
2022/09/04 11:15:09;;;;;;;12.82;10.20;;;;;;;15.53;94.71;98661.86;1725842;82;20205;-91
2022/09/04 11:17:56;;;;;;;12.20;9.08;;;;;;;15.43;95.72;98656.56;1712160;82;21482;-83
2022/09/04 11:21:02;;;;;;;11.90;9.65;;;;;;;15.48;94.89;98661.96;1702600;83;21323;-91
2022/09/04 11:23:48;;;;;;;12.05;10.08;;;;;;;15.47;95.28;98659.78;1707203;82;21053;-84
2022/09/04 11:27:08;;;;;;;11.83;9.40;;;;;;;15.40;95.57;98660.70;1712918;82;21030;-84
2022/09/04 11:30:02;;;;;;;10.90;8.73;;;;;;;15.38;96.52;98663.45;1712728;82;21038;-84
2022/09/04 11:32:43;;;;;;;12.23;9.85;;;;;;;15.37;95.44;98664.00;1688143;83;21076;-84
2022/09/04 11:35:37;;;;;;;12.23;10.40;;;;;;;15.40;95.36;98665.36;1730750;82;21311;-92
2022/09/04 11:38:42;;;;;;;12.53;9.48;;;;;;;15.40;95.84;98663.98;1737015;82;21035;-91
2022/09/04 11:41:37;;;;;;;12.73;10.50;;;;;;;15.35;96.17;98664.86;1735519;82;21032;-91
2022/09/04 11:44:39;;;;;;;12.30;9.95;;;;;;;15.39;96.01;98670.00;1712463;82;21015;-84
2022/09/04 11:47:35;;;;;;;12.60;10.35;;;;;;;15.44;96.63;98669.11;1699832;82;21047;-84
2022/09/04 11:50:42;;;;;;;16.65;10.35;;;;;;;15.50;96.75;98667.37;1711912;82;21736;-84
2022/09/04 11:53:35;;;;;;;13.20;10.40;;;;;;;15.60;96.28;98660.94;1709072;82;21012;-91
2022/09/04 11:56:36;;;;;;;12.58;9.90;;;;;;;15.76;96.63;98667.02;1691218;82;21048;-84
2022/09/04 11:59:16;;;;;;;12.70;10.18;;;;;;;15.85;96.51;98667.95;1721954;82;21020;-84
2022/09/04 12:01:54;;;;;;;12.75;9.78;;;;;;;15.90;96.43;98667.88;1716225;82;21027;-91
2022/09/04 12:04:48;;;;;;;12.25;9.93;;;;;;;15.98;96.65;98665.84;1712691;82;21222;-84
2022/09/04 12:07:56;;;;;;;13.75;10.82;;;;;;;16.08;96.21;98671.12;1712564;82;21106;-91
2022/09/04 12:11:13;;;;;;;14.60;10.98;;;;;;;16.11;96.21;98667.53;1712004;82;21062;-89
2022/09/04 12:14:10;;;;;;;14.58;11.43;;;;;;;16.21;95.91;98674.17;1715525;82;21063;-91
2022/09/04 12:17:07;;;;;;;12.73;10.20;;;;;;;16.27;95.78;98670.25;1715803;82;21054;-92
2022/09/04 12:20:15;;;;;;;18.05;11.28;;;;;;;16.34;95.50;98666.57;1727123;82;21148;-92
2022/09/04 12:23:07;;;;;;;14.28;10.50;;;;;;;16.42;95.27;98665.88;1711463;82;21022;-84
2022/09/04 12:26:02;;;;;;;11.73;10.45;;;;;;;16.45;94.75;98669.36;1712621;82;21435;-84
2022/09/04 12:28:49;;;;;;;13.55;11.48;;;;;;;16.60;94.88;98660.88;1712340;82;21066;-93
2022/09/04 12:31:35;;;;;;;11.18;9.60;;;;;;;16.78;94.64;98664.65;1710319;82;21119;-84
2022/09/04 12:34:21;;;;;;;13.22;9.50;;;;;;;16.88;94.37;98663.62;1711623;82;21253;-93
2022/09/04 12:37:28;;;;;;;12.10;9.88;;;;;;;16.81;93.31;98659.92;1736140;82;21049;-91
2022/09/04 12:40:31;;;;;;;13.03;10.53;;;;;;;16.92;93.65;98661.92;1717547;82;21003;-91
2022/09/04 12:43:26;;;;;;;13.58;10.80;;;;;;;17.03;93.75;98656.47;1711939;82;21526;-91
2022/09/04 12:46:04;;;;;;;14.93;10.68;;;;;;;17.18;93.34;98657.52;1712895;82;21023;-91
2022/09/04 12:48:57;;;;;;;12.18;9.48;;;;;;;17.31;92.78;98660.52;1729244;80;21845;-92
2022/09/04 12:51:24;;;;;;;11.60;9.28;;;;;;;17.47;92.65;98654.95;1691682;84;21085;-85
2022/09/04 12:54:04;;;;;;;11.15;9.15;;;;;;;17.68;92.74;98658.81;1737245;82;21033;-92
2022/09/04 12:57:05;;;;;;;10.93;8.98;;;;;;;17.91;92.26;98657.49;1724309;82;21036;-92
2022/09/04 12:59:54;;;;;;;11.90;8.93;;;;;;;18.06;92.10;98665.91;1736883;82;21008;-84
2022/09/04 13:02:57;;;;;;;10.58;9.35;;;;;;;18.10;91.58;98663.58;1737309;82;21127;-90
2022/09/04 13:05:53;;;;;;;12.03;9.08;;;;;;;18.21;91.80;98658.66;1695039;82;21435;-85
2022/09/04 13:08:37;;;;;;;10.95;9.45;;;;;;;18.19;91.00;98663.62;1712493;82;21036;-85
2022/09/04 13:11:34;;;;;;;14.03;10.58;;;;;;;18.18;90.60;98666.94;1725022;82;21016;-84